createdAt,value
2019-05-11T00:00:32.858Z,0.00
2019-05-11T00:01:32.851Z,0.00
2019-05-11T00:02:32.859Z,0.00
2019-05-11T00:03:32.830Z,0.00
2019-05-11T00:04:32.815Z,0.00
2019-05-11T00:05:32.803Z,0.00
2019-05-11T00:06:32.793Z,0.00
2019-05-11T00:07:32.807Z,0.00
2019-05-11T00:08:32.771Z,0.00
2019-05-11T00:09:32.764Z,0.00
2019-05-11T00:10:32.758Z,0.00
2019-05-11T00:11:32.743Z,0.00
2019-05-11T00:12:32.748Z,0.00
2019-05-11T00:13:32.716Z,0.00
2019-05-11T00:14:32.705Z,0.00
2019-05-11T00:15:32.696Z,0.00
2019-05-11T00:16:32.685Z,0.00
2019-05-11T00:17:32.696Z,0.00
2019-05-11T00:18:32.660Z,0.00
2019-05-11T00:19:32.653Z,0.00
2019-05-11T00:20:32.638Z,0.00
2019-05-11T00:21:32.627Z,0.00
2019-05-11T00:22:32.641Z,0.00
2019-05-11T00:23:32.604Z,0.00
2019-05-11T00:24:32.594Z,0.00
2019-05-11T00:25:32.582Z,0.00
2019-05-11T00:26:32.572Z,0.00
2019-05-11T00:27:32.580Z,0.00
2019-05-11T00:28:32.549Z,0.00
2019-05-11T00:29:32.556Z,0.00
2019-05-11T00:30:32.526Z,0.00
2019-05-11T00:31:32.517Z,0.00
2019-05-11T00:32:32.526Z,0.00
2019-05-11T00:33:32.493Z,0.00
2019-05-11T00:34:32.506Z,0.00
2019-05-11T00:35:32.476Z,0.00
2019-05-11T00:36:32.465Z,0.00
2019-05-11T00:37:32.449Z,0.00
2019-05-11T00:38:32.460Z,0.00
2019-05-11T00:39:32.427Z,0.00
2019-05-11T00:40:32.418Z,0.00
2019-05-11T00:41:32.405Z,0.00
2019-05-11T00:42:32.395Z,0.00
2019-05-11T00:43:32.410Z,0.00
2019-05-11T00:44:32.371Z,0.00
2019-05-11T00:45:32.359Z,0.00
2019-05-11T00:46:32.354Z,0.00
2019-05-11T00:47:32.341Z,0.00
2019-05-11T00:48:32.351Z,0.00
2019-05-11T00:49:32.321Z,0.00
2019-05-11T00:50:39.194Z,0.00
2019-05-11T00:51:33.293Z,0.00
2019-05-11T00:52:32.283Z,0.00
2019-05-11T00:53:32.309Z,0.00
2019-05-11T00:54:32.261Z,0.00
2019-05-11T00:55:32.249Z,0.00
2019-05-11T00:56:32.238Z,0.00
2019-05-11T00:57:32.227Z,0.00
2019-05-11T00:58:32.237Z,0.00
2019-05-11T00:59:32.205Z,0.00
2019-05-11T01:00:32.201Z,0.00
2019-05-11T01:01:32.196Z,0.00
2019-05-11T01:02:32.172Z,0.00
2019-05-11T01:03:32.183Z,0.00
2019-05-11T01:04:32.163Z,0.00
2019-05-11T01:05:32.138Z,0.00
2019-05-11T01:06:32.127Z,0.00
2019-05-11T01:07:32.116Z,0.00
2019-05-11T01:08:32.126Z,0.00
2019-05-11T01:09:32.093Z,0.00
2019-05-11T01:10:41.782Z,0.00
2019-05-11T01:11:33.070Z,0.00
2019-05-11T01:12:32.062Z,0.00
2019-05-11T01:13:32.069Z,0.00
2019-05-11T01:14:32.040Z,0.00
2019-05-11T01:15:32.031Z,0.00
2019-05-11T01:16:32.022Z,0.00
2019-05-11T01:17:32.004Z,0.00
2019-05-11T01:18:32.024Z,0.00
2019-05-11T01:19:31.983Z,0.00
2019-05-11T01:20:31.971Z,0.00
2019-05-11T01:21:31.963Z,0.00
2019-05-11T01:22:31.948Z,0.00
2019-05-11T01:23:31.962Z,0.00
2019-05-11T01:24:31.927Z,0.00
2019-05-11T01:25:31.939Z,0.00
2019-05-11T01:26:31.904Z,0.00
2019-05-11T01:27:31.897Z,0.00
2019-05-11T01:28:31.883Z,0.00
2019-05-11T01:29:31.891Z,0.00
2019-05-11T01:30:31.860Z,0.00
2019-05-11T01:31:31.848Z,0.00
2019-05-11T01:32:31.837Z,0.00
2019-05-11T01:33:31.827Z,0.00
2019-05-11T01:34:31.843Z,0.00
2019-05-11T01:35:31.804Z,0.00
2019-05-11T01:36:31.795Z,0.00
2019-05-11T01:37:31.785Z,0.00
2019-05-11T01:38:31.775Z,0.00
2019-05-11T01:39:31.785Z,0.00
2019-05-11T01:40:31.750Z,0.00
2019-05-11T01:41:31.737Z,0.00
2019-05-11T01:42:31.731Z,0.00
2019-05-11T01:43:31.717Z,0.00
2019-05-11T01:44:31.726Z,0.00
2019-05-11T01:45:31.697Z,0.00
2019-05-11T01:46:31.683Z,0.00
2019-05-11T01:47:31.673Z,0.00
2019-05-11T01:48:31.659Z,0.00
2019-05-11T01:49:31.670Z,0.00
2019-05-11T01:50:31.641Z,0.00
2019-05-11T01:51:31.630Z,0.00
2019-05-11T01:52:31.619Z,0.00
2019-05-11T01:53:31.630Z,0.00
2019-05-11T01:54:31.626Z,0.00
2019-05-11T01:55:31.582Z,0.00
2019-05-11T01:56:31.575Z,0.00
2019-05-11T01:57:31.565Z,0.00
2019-05-11T01:58:31.551Z,0.00
2019-05-11T01:59:31.563Z,0.00
2019-05-11T02:00:31.528Z,0.00
2019-05-11T02:01:31.524Z,0.00
2019-05-11T02:02:31.505Z,0.00
2019-05-11T02:03:31.501Z,0.00
2019-05-11T02:04:31.505Z,0.00
2019-05-11T02:05:31.474Z,0.00
2019-05-11T02:06:31.467Z,0.00
2019-05-11T02:07:31.450Z,0.00
2019-05-11T02:08:31.439Z,0.00
2019-05-11T02:09:31.450Z,0.00
2019-05-11T02:10:31.420Z,0.00
2019-05-11T02:11:31.406Z,0.00
2019-05-11T02:12:31.399Z,0.00
2019-05-11T02:13:31.387Z,0.00
2019-05-11T02:14:31.394Z,0.00
2019-05-11T02:15:31.365Z,0.00
2019-05-11T02:16:31.354Z,0.00
2019-05-11T02:17:31.342Z,0.00
2019-05-11T02:18:31.328Z,0.00
2019-05-11T02:19:31.344Z,0.00
2019-05-11T02:20:31.313Z,0.00
2019-05-11T02:21:31.316Z,0.00
2019-05-11T02:22:31.284Z,0.00
2019-05-11T02:23:31.274Z,0.00
2019-05-11T02:24:31.263Z,0.00
2019-05-11T02:25:31.274Z,0.00
2019-05-11T02:26:31.241Z,0.00
2019-05-11T02:27:31.230Z,0.00
2019-05-11T02:28:31.218Z,0.00
2019-05-11T02:29:31.208Z,0.00
2019-05-11T02:30:31.222Z,0.00
2019-05-11T02:31:31.196Z,0.00
2019-05-11T02:32:31.174Z,0.00
2019-05-11T02:33:31.245Z,0.00
2019-05-11T02:34:31.158Z,0.00
2019-05-11T02:35:31.166Z,0.00
2019-05-11T02:36:31.156Z,0.00
2019-05-11T02:37:31.123Z,0.00
2019-05-11T02:38:31.109Z,0.00
2019-05-11T02:39:31.099Z,0.00
2019-05-11T02:40:31.116Z,0.00
2019-05-11T02:41:36.520Z,0.00
2019-05-11T02:42:32.064Z,0.00
2019-05-11T02:43:31.060Z,0.00
2019-05-11T02:44:31.042Z,0.00
2019-05-11T02:45:31.061Z,0.00
2019-05-11T02:46:31.025Z,0.00
2019-05-11T02:47:31.013Z,0.00
2019-05-11T02:48:31.001Z,0.00
2019-05-11T02:49:30.992Z,0.00
2019-05-11T02:50:30.998Z,0.00
2019-05-11T02:51:30.966Z,0.00
2019-05-11T02:52:30.963Z,0.00
2019-05-11T02:53:30.943Z,0.00
2019-05-11T02:54:30.933Z,0.00
2019-05-11T02:55:30.945Z,0.00
2019-05-11T02:56:30.915Z,0.00
2019-05-11T02:57:30.898Z,0.00
2019-05-11T02:58:30.889Z,0.00
2019-05-11T02:59:30.882Z,0.00
2019-05-11T03:00:30.885Z,0.00
2019-05-11T03:01:30.861Z,0.00
2019-05-11T03:02:30.845Z,0.00
2019-05-11T03:03:30.830Z,0.00
2019-05-11T03:04:30.823Z,0.00
2019-05-11T03:05:30.831Z,0.00
2019-05-11T03:06:30.801Z,0.00
2019-05-11T03:07:30.795Z,0.00
2019-05-11T03:08:30.775Z,0.00
2019-05-11T03:09:30.766Z,0.00
2019-05-11T03:10:30.777Z,0.00
2019-05-11T03:11:30.742Z,0.00
2019-05-11T03:12:30.731Z,0.00
2019-05-11T03:13:30.749Z,0.00
2019-05-11T03:14:30.720Z,0.00
2019-05-11T03:15:30.701Z,0.00
2019-05-11T03:16:30.714Z,0.00
2019-05-11T03:17:30.677Z,0.00
2019-05-11T03:18:30.665Z,0.00
2019-05-11T03:19:30.658Z,0.00
2019-05-11T03:20:30.652Z,0.00
2019-05-11T03:21:30.656Z,0.00
2019-05-11T03:22:30.629Z,0.00
2019-05-11T03:23:30.619Z,0.00
2019-05-11T03:24:30.599Z,0.00
2019-05-11T03:25:30.588Z,0.00
2019-05-11T03:26:30.602Z,0.00
2019-05-11T03:27:30.586Z,0.00
2019-05-11T03:28:30.555Z,0.00
2019-05-11T03:29:30.543Z,0.00
2019-05-11T03:30:30.537Z,0.00
2019-05-11T03:31:30.557Z,0.00
2019-05-11T03:32:30.513Z,0.00
2019-05-11T03:33:30.513Z,0.00
2019-05-11T03:34:30.492Z,0.00
2019-05-11T03:35:30.482Z,0.00
2019-05-11T03:36:30.488Z,0.00
2019-05-11T03:37:30.459Z,0.00
2019-05-11T03:38:30.455Z,0.00
2019-05-11T03:39:30.432Z,0.00
2019-05-11T03:40:30.437Z,0.00
2019-05-11T03:41:30.432Z,0.00
2019-05-11T03:42:30.400Z,0.00
2019-05-11T03:43:30.388Z,0.00
2019-05-11T03:44:30.387Z,0.00
2019-05-11T03:45:30.365Z,0.00
2019-05-11T03:46:30.377Z,0.00
2019-05-11T03:47:30.346Z,0.00
2019-05-11T03:48:30.333Z,0.00
2019-05-11T03:49:30.321Z,0.00
2019-05-11T03:50:30.314Z,0.00
2019-05-11T03:51:30.324Z,0.00
2019-05-11T03:52:30.294Z,0.00
2019-05-11T03:53:30.278Z,0.00
2019-05-11T03:54:30.267Z,0.00
2019-05-11T03:55:30.256Z,0.00
2019-05-11T03:56:30.270Z,0.00
2019-05-11T03:57:30.233Z,0.00
2019-05-11T03:58:30.222Z,0.00
2019-05-11T03:59:30.212Z,0.00
2019-05-11T04:00:30.200Z,0.00
2019-05-11T04:01:30.214Z,0.00
2019-05-11T04:02:30.179Z,0.00
2019-05-11T04:03:30.168Z,0.00
2019-05-11T04:04:30.156Z,0.00
2019-05-11T04:05:30.167Z,0.00
2019-05-11T04:06:30.138Z,0.00
2019-05-11T04:07:30.144Z,0.00
2019-05-11T04:08:30.113Z,0.00
2019-05-11T04:09:30.100Z,0.00
2019-05-11T04:10:30.101Z,0.00
2019-05-11T04:11:30.107Z,0.00
2019-05-11T04:12:34.540Z,0.00
2019-05-11T04:13:31.063Z,0.00
2019-05-11T04:14:30.047Z,0.00
2019-05-11T04:15:30.038Z,0.00
2019-05-11T04:16:30.024Z,0.00
2019-05-11T04:17:30.032Z,0.00
2019-05-11T04:18:30.004Z,0.00
2019-05-11T04:19:29.989Z,0.00
2019-05-11T04:20:29.977Z,0.00
2019-05-11T04:21:29.968Z,0.00
2019-05-11T04:22:29.981Z,0.00
2019-05-11T04:23:29.949Z,0.00
2019-05-11T04:24:29.938Z,0.00
2019-05-11T04:25:29.924Z,0.00
2019-05-11T04:26:29.916Z,0.00
2019-05-11T04:27:29.929Z,0.00
2019-05-11T04:28:29.890Z,0.00
2019-05-11T04:29:29.881Z,0.00
2019-05-11T04:30:29.872Z,0.00
2019-05-11T04:31:29.859Z,0.00
2019-05-11T04:32:29.869Z,0.00
2019-05-11T04:33:33.027Z,0.00
2019-05-11T04:34:29.827Z,0.00
2019-05-11T04:35:29.812Z,0.00
2019-05-11T04:36:29.801Z,0.00
2019-05-11T04:37:29.813Z,0.00
2019-05-11T04:38:29.780Z,0.00
2019-05-11T04:39:29.772Z,0.00
2019-05-11T04:40:29.757Z,0.00
2019-05-11T04:41:29.750Z,0.00
2019-05-11T04:42:29.775Z,0.00
2019-05-11T04:43:29.726Z,0.00
2019-05-11T04:44:29.713Z,0.00
2019-05-11T04:45:29.706Z,0.00
2019-05-11T04:46:29.700Z,0.00
2019-05-11T04:47:29.700Z,0.00
2019-05-11T04:48:29.677Z,0.00
2019-05-11T04:49:29.659Z,0.00
2019-05-11T04:50:29.647Z,0.00
2019-05-11T04:51:29.636Z,0.00
2019-05-11T04:52:29.645Z,0.00
2019-05-11T04:53:29.618Z,0.00
2019-05-11T04:54:29.602Z,0.00
2019-05-11T04:55:29.595Z,0.00
2019-05-11T04:56:29.581Z,0.00
2019-05-11T04:57:29.595Z,0.00
2019-05-11T04:58:29.562Z,0.00
2019-05-11T04:59:29.551Z,0.00
2019-05-11T05:00:29.537Z,0.00
2019-05-11T05:01:29.549Z,0.00
2019-05-11T05:02:29.514Z,0.00
2019-05-11T05:03:40.264Z,0.00
2019-05-11T05:04:30.490Z,0.00
2019-05-11T05:05:29.485Z,0.00
2019-05-11T05:06:29.469Z,0.00
2019-05-11T05:07:29.460Z,0.00
2019-05-11T05:08:29.469Z,0.00
2019-05-11T05:09:29.542Z,0.00
2019-05-11T05:10:29.429Z,0.00
2019-05-11T05:11:30.596Z,0.00
2019-05-11T05:12:30.403Z,0.00
2019-05-11T05:13:31.366Z,0.00
2019-05-11T05:14:29.381Z,0.00
2019-05-11T05:15:29.370Z,0.00
2019-05-11T05:16:31.563Z,0.00
2019-05-11T05:17:29.349Z,0.00
2019-05-11T05:18:29.359Z,0.00
2019-05-11T05:19:29.328Z,0.00
2019-05-11T05:20:29.319Z,0.00
2019-05-11T05:21:29.304Z,0.00
2019-05-11T05:22:29.294Z,0.00
2019-05-11T05:23:29.305Z,0.00
2019-05-11T05:24:29.270Z,0.00
2019-05-11T05:25:29.262Z,0.00
2019-05-11T05:26:29.250Z,0.00
2019-05-11T05:27:29.238Z,0.00
2019-05-11T05:28:29.262Z,0.00
2019-05-11T05:29:29.216Z,0.00
2019-05-11T05:30:29.206Z,0.00
2019-05-11T05:31:29.197Z,0.00
2019-05-11T05:32:29.184Z,0.00
2019-05-11T05:33:29.194Z,0.00
2019-05-11T05:34:29.161Z,0.00
2019-05-11T05:35:29.155Z,0.00
2019-05-11T05:36:29.143Z,0.00
2019-05-11T05:37:29.128Z,0.00
2019-05-11T05:38:29.138Z,0.00
2019-05-11T05:39:29.105Z,0.00
2019-05-11T05:40:29.095Z,0.00
2019-05-11T05:41:29.083Z,0.00
2019-05-11T05:42:29.077Z,0.00
2019-05-11T05:43:29.084Z,0.00
2019-05-11T05:44:29.052Z,0.00
2019-05-11T05:45:29.039Z,0.00
2019-05-11T05:46:29.028Z,0.00
2019-05-11T05:47:29.016Z,0.00
2019-05-11T05:48:29.031Z,0.00
2019-05-11T05:49:28.998Z,0.00
2019-05-11T05:50:28.983Z,0.00
2019-05-11T05:51:28.972Z,0.00
2019-05-11T05:52:28.962Z,0.00
2019-05-11T05:53:28.959Z,0.00
2019-05-11T05:54:29.035Z,0.00
2019-05-11T05:55:28.932Z,0.00
2019-05-11T05:56:28.917Z,0.00
2019-05-11T05:57:28.909Z,0.00
2019-05-11T05:58:28.900Z,0.00
2019-05-11T05:59:28.910Z,0.00
2019-05-11T06:00:28.873Z,0.00
2019-05-11T06:01:28.870Z,0.00
2019-05-11T06:02:28.855Z,0.00
2019-05-11T06:03:28.841Z,0.00
2019-05-11T06:04:28.855Z,0.00
2019-05-11T06:05:28.823Z,0.00
2019-05-11T06:06:28.828Z,0.00
2019-05-11T06:07:28.803Z,0.00
2019-05-11T06:08:28.797Z,0.00
2019-05-11T06:09:28.799Z,0.00
2019-05-11T06:10:28.763Z,0.00
2019-05-11T06:11:28.754Z,0.00
2019-05-11T06:12:28.743Z,0.00
2019-05-11T06:13:43.818Z,0.00
2019-05-11T06:14:29.741Z,0.00
2019-05-11T06:15:28.708Z,0.00
2019-05-11T06:16:28.702Z,0.00
2019-05-11T06:17:28.691Z,0.00
2019-05-11T06:18:28.677Z,0.00
2019-05-11T06:19:28.685Z,0.00
2019-05-11T06:20:28.654Z,0.00
2019-05-11T06:21:28.644Z,0.00
2019-05-11T06:22:28.631Z,0.00
2019-05-11T06:23:28.621Z,0.00
2019-05-11T06:24:28.636Z,0.00
2019-05-11T06:25:28.603Z,0.00
2019-05-11T06:26:28.590Z,0.00
2019-05-11T06:27:28.576Z,0.00
2019-05-11T06:28:28.568Z,0.00
2019-05-11T06:29:28.579Z,0.00
2019-05-11T06:30:28.543Z,0.00
2019-05-11T06:31:28.539Z,0.00
2019-05-11T06:32:28.522Z,0.00
2019-05-11T06:33:28.514Z,0.00
2019-05-11T06:34:28.522Z,0.00
2019-05-11T06:35:28.491Z,0.00
2019-05-11T06:36:28.484Z,0.00
2019-05-11T06:37:28.467Z,0.00
2019-05-11T06:38:28.454Z,0.00
2019-05-11T06:39:28.466Z,0.00
2019-05-11T06:40:28.799Z,0.00
2019-05-11T06:41:28.422Z,0.00
2019-05-11T06:42:28.411Z,0.00
2019-05-11T06:43:28.400Z,0.00
2019-05-11T06:44:28.411Z,0.00
2019-05-11T06:45:28.378Z,0.00
2019-05-11T06:46:28.369Z,0.00
2019-05-11T06:47:28.360Z,0.00
2019-05-11T06:48:28.366Z,0.00
2019-05-11T06:49:28.335Z,0.00
2019-05-11T06:50:28.345Z,0.00
2019-05-11T06:51:28.312Z,0.00
2019-05-11T06:52:28.305Z,0.00
2019-05-11T06:53:28.294Z,0.00
2019-05-11T06:54:28.280Z,0.00
2019-05-11T06:55:28.296Z,0.00
2019-05-11T06:56:28.265Z,0.00
2019-05-11T06:57:28.250Z,0.00
2019-05-11T06:58:28.238Z,0.00
2019-05-11T06:59:28.226Z,0.00
2019-05-11T07:00:28.236Z,0.00
2019-05-11T07:01:28.202Z,0.00
2019-05-11T07:02:28.190Z,0.00
2019-05-11T07:03:28.179Z,0.00
2019-05-11T07:04:28.173Z,0.00
2019-05-11T07:05:28.184Z,0.00
2019-05-11T07:06:30.523Z,0.00
2019-05-11T07:07:28.139Z,0.00
2019-05-11T07:08:28.125Z,0.00
2019-05-11T07:09:28.114Z,0.00
2019-05-11T07:10:28.129Z,0.00
2019-05-11T07:11:28.093Z,0.00
2019-05-11T07:12:28.086Z,0.00
2019-05-11T07:13:28.071Z,0.00
2019-05-11T07:14:28.063Z,0.00
2019-05-11T07:15:28.069Z,0.00
2019-05-11T07:16:28.046Z,0.00
2019-05-11T07:17:28.030Z,0.00
2019-05-11T07:18:28.014Z,0.00
2019-05-11T07:19:28.008Z,0.00
2019-05-11T07:20:28.014Z,0.00
2019-05-11T07:21:27.987Z,0.00
2019-05-11T07:22:27.972Z,0.00
2019-05-11T07:23:27.961Z,0.00
2019-05-11T07:24:27.953Z,0.00
2019-05-11T07:25:27.964Z,0.00
2019-05-11T07:26:27.929Z,0.00
2019-05-11T07:27:27.919Z,0.00
2019-05-11T07:28:27.909Z,0.00
2019-05-11T07:29:27.895Z,0.00
2019-05-11T07:30:27.908Z,0.00
2019-05-11T07:31:27.908Z,0.00
2019-05-11T07:32:29.325Z,0.00
2019-05-11T07:33:28.685Z,0.00
2019-05-11T07:34:27.908Z,0.00
2019-05-11T07:35:28.012Z,0.00
2019-05-11T07:36:28.362Z,0.00
2019-05-11T07:37:28.106Z,5.62
2019-05-11T07:38:27.993Z,5.62
2019-05-11T07:39:28.025Z,5.62
2019-05-11T07:40:27.999Z,0.00
2019-05-11T07:41:28.256Z,5.62
2019-05-11T07:42:28.563Z,5.62
2019-05-11T07:43:28.758Z,11.25
2019-05-11T07:44:37.646Z,11.25
2019-05-11T07:45:28.719Z,11.25
2019-05-11T07:46:28.760Z,11.25
2019-05-11T07:47:27.955Z,5.62
2019-05-11T07:48:28.015Z,5.62
2019-05-11T07:49:29.230Z,5.62
2019-05-11T07:50:28.373Z,5.62
2019-05-11T07:51:28.703Z,5.62
2019-05-11T07:52:28.714Z,5.62
2019-05-11T07:53:28.041Z,5.62
2019-05-11T07:54:28.187Z,5.62
2019-05-11T07:55:28.328Z,5.62
2019-05-11T07:56:28.478Z,5.62
2019-05-11T07:57:28.360Z,11.25
2019-05-11T07:58:28.560Z,5.62
2019-05-11T07:59:28.894Z,5.62
2019-05-11T08:00:28.177Z,5.62
2019-05-11T08:01:28.339Z,5.62
2019-05-11T08:02:28.521Z,5.62
2019-05-11T08:03:28.341Z,5.62
2019-05-11T08:04:28.774Z,5.62
2019-05-11T08:05:28.421Z,5.62
2019-05-11T08:06:28.534Z,5.62
2019-05-11T08:07:28.560Z,11.25
2019-05-11T08:08:28.370Z,11.25
2019-05-11T08:09:27.938Z,5.62
2019-05-11T08:10:28.155Z,11.25
2019-05-11T08:11:30.782Z,5.62
2019-05-11T08:12:28.456Z,5.62
2019-05-11T08:13:28.242Z,5.62
2019-05-11T08:14:28.753Z,5.62
2019-05-11T08:15:28.370Z,5.62
2019-05-11T08:16:28.588Z,5.62
2019-05-11T08:17:28.640Z,5.62
2019-05-11T08:18:28.180Z,5.62
2019-05-11T08:19:28.279Z,5.62
2019-05-11T08:20:28.068Z,5.62
2019-05-11T08:21:28.403Z,5.62
2019-05-11T08:22:28.389Z,5.62
2019-05-11T08:23:28.512Z,5.62
2019-05-11T08:24:28.480Z,5.62
2019-05-11T08:25:28.684Z,5.62
2019-05-11T08:26:28.317Z,5.62
2019-05-11T08:27:28.573Z,5.62
2019-05-11T08:28:28.784Z,5.62
2019-05-11T08:29:27.949Z,5.62
2019-05-11T08:30:27.806Z,0.00
2019-05-11T08:31:27.893Z,0.00
2019-05-11T08:32:28.619Z,0.00
2019-05-11T08:33:28.373Z,5.62
2019-05-11T08:34:28.618Z,5.62
2019-05-11T08:35:30.880Z,5.62
2019-05-11T08:36:28.933Z,5.62
2019-05-11T08:37:28.370Z,5.62
2019-05-11T08:38:28.515Z,5.62
2019-05-11T08:39:28.808Z,5.62
2019-05-11T08:40:28.817Z,5.62
2019-05-11T08:41:27.974Z,5.62
2019-05-11T08:42:28.852Z,5.62
2019-05-11T08:43:28.563Z,5.62
2019-05-11T08:44:28.755Z,11.25
2019-05-11T08:45:27.972Z,11.25
2019-05-11T08:46:27.924Z,11.25
2019-05-11T08:47:28.357Z,11.25
2019-05-11T08:48:28.284Z,11.25
2019-05-11T08:49:28.725Z,16.88
2019-05-11T08:50:27.889Z,16.88
2019-05-11T08:51:28.007Z,16.88
2019-05-11T08:52:28.091Z,16.88
2019-05-11T08:53:28.422Z,16.88
2019-05-11T08:54:28.831Z,11.25
2019-05-11T08:55:28.974Z,11.25
2019-05-11T08:56:28.874Z,11.25
2019-05-11T08:57:28.545Z,16.88
2019-05-11T08:58:27.811Z,16.88
2019-05-11T08:59:27.842Z,16.88
2019-05-11T09:00:28.332Z,16.88
2019-05-11T09:01:28.717Z,16.88
2019-05-11T09:02:27.825Z,16.88
2019-05-11T09:03:28.460Z,16.88
2019-05-11T09:04:28.800Z,16.88
2019-05-11T09:05:28.051Z,16.88
2019-05-11T09:06:28.422Z,16.88
2019-05-11T09:07:27.819Z,16.88
2019-05-11T09:08:28.351Z,16.88
2019-05-11T09:09:28.683Z,16.88
2019-05-11T09:10:28.143Z,16.88
2019-05-11T09:11:28.368Z,22.50
2019-05-11T09:12:28.765Z,16.88
2019-05-11T09:13:27.987Z,16.88
2019-05-11T09:14:28.317Z,16.88
2019-05-11T09:15:36.446Z,16.88
2019-05-11T09:16:29.126Z,16.88
2019-05-11T09:17:28.799Z,11.25
2019-05-11T09:18:28.010Z,11.25
2019-05-11T09:19:28.435Z,11.25
2019-05-11T09:20:28.488Z,11.25
2019-05-11T09:21:28.178Z,11.25
2019-05-11T09:22:28.327Z,11.25
2019-05-11T09:23:34.672Z,11.25
2019-05-11T09:24:28.280Z,11.25
2019-05-11T09:25:27.757Z,11.25
2019-05-11T09:26:28.661Z,11.25
2019-05-11T09:27:28.519Z,11.25
2019-05-11T09:28:29.303Z,11.25
2019-05-11T09:29:28.191Z,11.25
2019-05-11T09:30:28.649Z,11.25
2019-05-11T09:31:27.950Z,11.25
2019-05-11T09:32:28.542Z,11.25
2019-05-11T09:33:28.284Z,11.25
2019-05-11T09:34:28.649Z,11.25
2019-05-11T09:35:29.037Z,11.25
2019-05-11T09:36:28.515Z,11.25
2019-05-11T09:37:27.765Z,11.25
2019-05-11T09:38:27.757Z,11.25
2019-05-11T09:39:28.066Z,11.25
2019-05-11T09:40:28.380Z,11.25
2019-05-11T09:41:28.772Z,11.25
2019-05-11T09:42:28.420Z,11.25
2019-05-11T09:43:28.363Z,11.25
2019-05-11T09:44:28.620Z,11.25
2019-05-11T09:45:27.802Z,11.25
2019-05-11T09:46:27.883Z,11.25
2019-05-11T09:47:27.928Z,11.25
2019-05-11T09:48:28.402Z,11.25
2019-05-11T09:49:43.349Z,11.25
2019-05-11T09:50:28.384Z,11.25
2019-05-11T09:51:28.595Z,11.25
2019-05-11T09:52:27.596Z,11.25
2019-05-11T09:53:28.315Z,11.25
2019-05-11T09:54:28.756Z,11.25
2019-05-11T09:55:28.274Z,11.25
2019-05-11T09:56:28.596Z,11.25
2019-05-11T09:57:27.623Z,5.62
2019-05-11T09:58:28.074Z,5.62
2019-05-11T09:59:28.273Z,5.62
2019-05-11T10:00:28.284Z,5.62
2019-05-11T10:01:26.214Z,5.62
2019-05-11T10:02:27.993Z,11.25
2019-05-11T10:03:28.137Z,11.25
2019-05-11T10:04:28.606Z,11.25
2019-05-11T10:05:28.436Z,11.25
2019-05-11T10:06:28.187Z,11.25
2019-05-11T10:07:28.450Z,11.25
2019-05-11T10:08:28.541Z,11.25
2019-05-11T10:09:28.022Z,11.25
2019-05-11T10:10:26.115Z,11.25
2019-05-11T10:11:28.157Z,11.25
2019-05-11T10:12:28.466Z,11.25
2019-05-11T10:13:27.828Z,11.25
2019-05-11T10:14:26.093Z,11.25
2019-05-11T10:15:27.970Z,11.25
2019-05-11T10:16:28.074Z,11.25
2019-05-11T10:17:26.040Z,11.25
2019-05-11T10:18:27.977Z,11.25
2019-05-11T10:19:28.240Z,11.25
2019-05-11T10:20:28.477Z,11.25
2019-05-11T10:21:27.917Z,11.25
2019-05-11T10:22:27.869Z,11.25
2019-05-11T10:23:27.892Z,11.25
2019-05-11T10:24:28.137Z,11.25
2019-05-11T10:25:28.493Z,11.25
2019-05-11T10:26:27.858Z,11.25
2019-05-11T10:27:28.036Z,11.25
2019-05-11T10:28:28.283Z,11.25
2019-05-11T10:29:25.932Z,11.25
2019-05-11T10:30:28.000Z,11.25
2019-05-11T10:31:28.253Z,11.25
2019-05-11T10:32:25.879Z,11.25
2019-05-11T10:33:27.981Z,11.25
2019-05-11T10:34:28.302Z,11.25
2019-05-11T10:35:25.842Z,11.25
2019-05-11T10:36:27.920Z,11.25
2019-05-11T10:37:28.128Z,16.88
2019-05-11T10:38:25.828Z,16.88
2019-05-11T10:39:27.975Z,16.88
2019-05-11T10:40:27.886Z,16.88
2019-05-11T10:41:28.260Z,16.88
2019-05-11T10:42:25.767Z,16.88
2019-05-11T10:43:25.774Z,16.88
2019-05-11T10:44:27.927Z,11.25
2019-05-11T10:45:25.754Z,11.25
2019-05-11T10:46:25.720Z,11.25
2019-05-11T10:47:27.790Z,11.25
2019-05-11T10:48:28.069Z,11.25
2019-05-11T10:49:25.688Z,11.25
2019-05-11T10:50:25.699Z,5.62
2019-05-11T10:51:25.668Z,5.62
2019-05-11T10:52:25.655Z,0.00
2019-05-11T10:53:27.892Z,5.62
2019-05-11T10:54:28.444Z,5.62
2019-05-11T10:55:27.881Z,0.00
2019-05-11T10:56:25.608Z,0.00
2019-05-11T10:57:28.131Z,0.00
2019-05-11T10:58:25.589Z,0.00
2019-05-11T10:59:27.954Z,5.62
2019-05-11T11:00:25.586Z,5.62
2019-05-11T11:01:25.554Z,11.25
2019-05-11T11:02:27.689Z,11.25
2019-05-11T11:03:25.532Z,11.25
2019-05-11T11:04:25.520Z,11.25
2019-05-11T11:05:27.772Z,11.25
2019-05-11T11:06:27.987Z,5.62
2019-05-11T11:07:25.487Z,11.25
2019-05-11T11:08:27.662Z,11.25
2019-05-11T11:09:25.469Z,11.25
2019-05-11T11:10:25.479Z,11.25
2019-05-11T11:11:27.607Z,11.25
2019-05-11T11:12:27.756Z,11.25
2019-05-11T11:13:25.420Z,11.25
2019-05-11T11:14:25.414Z,11.25
2019-05-11T11:15:25.419Z,16.88
2019-05-11T11:16:36.898Z,16.88
2019-05-11T11:17:28.574Z,16.88
2019-05-11T11:18:25.366Z,16.88
2019-05-11T11:19:25.355Z,16.88
2019-05-11T11:20:27.810Z,16.88
2019-05-11T11:21:27.731Z,16.88
2019-05-11T11:22:36.946Z,16.88
2019-05-11T11:23:28.346Z,22.50
2019-05-11T11:24:25.301Z,22.50
2019-05-11T11:25:25.309Z,22.50
2019-05-11T11:26:25.301Z,22.50
2019-05-11T11:27:25.267Z,28.12
2019-05-11T11:28:25.259Z,28.12
2019-05-11T11:29:25.248Z,28.12
2019-05-11T11:30:25.240Z,28.12
2019-05-11T11:31:25.243Z,28.12
2019-05-11T11:32:27.657Z,28.12
2019-05-11T11:33:27.538Z,28.12
2019-05-11T11:34:25.188Z,22.50
2019-05-11T11:35:25.177Z,22.50
2019-05-11T11:36:25.191Z,28.12
2019-05-11T11:37:25.160Z,28.12
2019-05-11T11:38:25.173Z,28.12
2019-05-11T11:39:25.132Z,28.12
2019-05-11T11:40:25.121Z,22.50
2019-05-11T11:41:25.133Z,22.50
2019-05-11T11:42:25.104Z,16.88
2019-05-11T11:43:25.090Z,22.50
2019-05-11T11:44:25.077Z,22.50
2019-05-11T11:45:25.066Z,28.12
2019-05-11T11:46:25.080Z,28.12
2019-05-11T11:47:25.045Z,28.12
2019-05-11T11:48:25.033Z,28.12
2019-05-11T11:49:25.023Z,28.12
2019-05-11T11:50:25.012Z,28.12
2019-05-11T11:51:25.022Z,28.12
2019-05-11T11:52:24.990Z,28.12
2019-05-11T11:53:24.979Z,28.12
2019-05-11T11:54:24.968Z,28.12
2019-05-11T11:55:24.956Z,28.12
2019-05-11T11:56:24.969Z,28.12
2019-05-11T11:57:24.937Z,28.12
2019-05-11T11:58:24.924Z,28.12
2019-05-11T11:59:24.915Z,28.12
2019-05-11T12:00:24.902Z,28.12
2019-05-11T12:01:24.913Z,28.12
2019-05-11T12:02:24.882Z,28.12
2019-05-11T12:03:24.872Z,33.75
2019-05-11T12:04:24.856Z,33.75
2019-05-11T12:05:24.852Z,33.75
2019-05-11T12:06:24.858Z,33.75
2019-05-11T12:07:24.845Z,33.75
2019-05-11T12:08:24.813Z,33.75
2019-05-11T12:09:24.800Z,33.75
2019-05-11T12:10:24.789Z,33.75
2019-05-11T12:11:24.777Z,33.75
2019-05-11T12:12:24.794Z,33.75
2019-05-11T12:13:27.414Z,33.75
2019-05-11T12:14:24.746Z,28.12
2019-05-11T12:15:24.734Z,28.12
2019-05-11T12:16:24.727Z,28.12
2019-05-11T12:17:24.733Z,28.12
2019-05-11T12:18:24.704Z,28.12
2019-05-11T12:19:24.695Z,28.12
2019-05-11T12:20:24.679Z,28.12
2019-05-11T12:21:24.668Z,28.12
2019-05-11T12:22:24.678Z,28.12
2019-05-11T12:23:24.646Z,33.75
2019-05-11T12:24:24.635Z,33.75
2019-05-11T12:25:24.624Z,33.75
2019-05-11T12:26:24.612Z,33.75
2019-05-11T12:27:24.624Z,33.75
2019-05-11T12:28:24.591Z,33.75
2019-05-11T12:29:24.578Z,33.75
2019-05-11T12:30:24.570Z,28.12
2019-05-11T12:31:24.557Z,28.12
2019-05-11T12:32:24.579Z,28.12
2019-05-11T12:33:24.540Z,33.75
2019-05-11T12:34:24.525Z,39.38
2019-05-11T12:35:24.517Z,33.75
2019-05-11T12:36:24.503Z,33.75
2019-05-11T12:37:24.513Z,28.12
2019-05-11T12:38:24.479Z,22.50
2019-05-11T12:39:24.470Z,16.88
2019-05-11T12:40:24.457Z,16.88
2019-05-11T12:41:24.449Z,11.25
2019-05-11T12:42:24.459Z,11.25
2019-05-11T12:43:24.445Z,11.25
2019-05-11T12:44:24.417Z,11.25
2019-05-11T12:45:24.405Z,11.25
2019-05-11T12:46:24.392Z,11.25
2019-05-11T12:47:25.286Z,11.25
2019-05-11T12:48:24.393Z,11.25
2019-05-11T12:49:24.358Z,11.25
2019-05-11T12:50:24.348Z,11.25
2019-05-11T12:51:24.341Z,11.25
2019-05-11T12:52:24.326Z,11.25
2019-05-11T12:53:24.338Z,11.25
2019-05-11T12:54:24.302Z,11.25
2019-05-11T12:55:24.296Z,11.25
2019-05-11T12:56:24.281Z,11.25
2019-05-11T12:57:24.270Z,16.88
2019-05-11T12:58:24.282Z,11.25
2019-05-11T12:59:24.247Z,11.25
2019-05-11T13:00:24.237Z,11.25
2019-05-11T13:01:24.226Z,5.62
2019-05-11T13:02:24.214Z,5.62
2019-05-11T13:03:24.227Z,11.25
2019-05-11T13:04:24.191Z,11.25
2019-05-11T13:05:24.181Z,11.25
2019-05-11T13:06:24.173Z,16.88
2019-05-11T13:07:24.162Z,16.88
2019-05-11T13:08:24.169Z,22.50
2019-05-11T13:09:24.141Z,22.50